createdAt,value
2019-03-01T00:00:31.702Z,100551.31
2019-03-01T00:03:02.960Z,100549.33
2019-03-01T00:06:02.003Z,100542.88
2019-03-01T00:09:13.310Z,100550.62
2019-03-01T00:12:15.439Z,100545.20
2019-03-01T00:15:17.890Z,100547.66
2019-03-01T00:18:22.788Z,100541.78
2019-03-01T00:21:40.315Z,100538.93
2019-03-01T00:24:51.690Z,100545.78
2019-03-01T00:27:50.945Z,100549.06
2019-03-01T00:31:05.201Z,100537.80
2019-03-01T00:34:11.965Z,100545.16
2019-03-01T00:36:53.902Z,100542.33
2019-03-01T00:39:33.549Z,100546.34
2019-03-01T00:42:30.920Z,100551.61
2019-03-01T00:45:01.527Z,100551.37
2019-03-01T00:47:32.281Z,100553.34
2019-03-01T00:50:02.844Z,100548.63
2019-03-01T00:52:33.616Z,100549.98
2019-03-01T00:55:04.893Z,100554.30
2019-03-01T00:57:35.720Z,100564.71
2019-03-01T01:00:08.333Z,100560.34
2019-03-01T01:02:38.815Z,100551.31
2019-03-01T01:05:09.503Z,100550.63
2019-03-01T01:07:40.391Z,100549.47
2019-03-01T01:13:06.452Z,100543.34
2019-03-01T01:15:37.168Z,100539.56
2019-03-01T01:18:07.921Z,100541.52
2019-03-01T01:20:38.830Z,100536.11
2019-03-01T01:23:09.713Z,100539.06
2019-03-01T01:25:40.601Z,100547.07
2019-03-01T01:28:11.463Z,100551.03
2019-03-01T01:30:42.787Z,100551.86
2019-03-01T01:33:14.183Z,100556.34
2019-03-01T01:35:44.966Z,100553.11
2019-03-01T01:38:15.353Z,100550.77
2019-03-01T01:40:45.760Z,100548.59
2019-03-01T01:43:16.700Z,100541.48
2019-03-01T01:45:48.198Z,100550.11
2019-03-01T01:48:18.844Z,100543.81
2019-03-01T01:50:50.116Z,100549.60
2019-03-01T01:53:21.049Z,100551.35
2019-03-01T01:55:52.045Z,100551.63
2019-03-01T01:58:22.793Z,100551.58
2019-03-01T02:00:53.790Z,100543.46
2019-03-01T02:03:24.915Z,100547.36
2019-03-01T02:05:55.778Z,100548.39
2019-03-01T02:08:26.782Z,100541.56
2019-03-01T02:10:57.722Z,100539.69
2019-03-01T02:13:28.801Z,100543.61
2019-03-01T02:15:59.423Z,100543.45
2019-03-01T02:18:30.726Z,100542.63
2019-03-01T02:21:01.482Z,100544.30
2019-03-01T02:23:32.141Z,100543.00
2019-03-01T02:26:02.828Z,100540.97
2019-03-01T02:28:33.729Z,100538.37
2019-03-01T02:31:05.461Z,100533.23
2019-03-01T02:33:36.511Z,100538.64
2019-03-01T02:36:07.399Z,100546.42
2019-03-01T02:38:38.368Z,100545.80
2019-03-01T02:41:10.645Z,100542.06
2019-03-01T02:43:41.981Z,100548.05
2019-03-01T02:46:12.866Z,100546.88
2019-03-01T02:48:43.470Z,100549.05
2019-03-01T02:51:14.240Z,100549.05
2019-03-01T02:53:44.980Z,100555.69
2019-03-01T02:56:15.694Z,100564.98
2019-03-01T02:58:46.556Z,100566.95
2019-03-01T03:01:17.187Z,100569.28
2019-03-01T03:03:47.651Z,100567.69
2019-03-01T03:06:23.226Z,100566.47
2019-03-01T03:08:53.961Z,100571.32
2019-03-01T03:11:25.094Z,100572.29
2019-03-01T03:13:55.655Z,100569.33
2019-03-01T03:16:26.496Z,100576.28
2019-03-01T03:18:56.902Z,100576.36
2019-03-01T03:21:27.789Z,100581.13
2019-03-01T03:23:59.174Z,100567.26
2019-03-01T03:26:29.824Z,100576.33
2019-03-01T03:29:00.922Z,100577.06
2019-03-01T03:31:31.916Z,100581.33
2019-03-01T03:34:02.699Z,100576.77
2019-03-01T03:36:33.842Z,100572.77
2019-03-01T03:39:06.056Z,100576.88
2019-03-01T03:41:36.978Z,100580.77
2019-03-01T03:44:08.077Z,100577.47
2019-03-01T03:46:39.060Z,100582.80
2019-03-01T03:49:11.446Z,100587.28
2019-03-01T03:51:41.064Z,100591.31
2019-03-01T03:54:10.555Z,100587.43
2019-03-01T03:56:39.942Z,100591.58
2019-03-01T03:59:09.587Z,100577.75
2019-03-01T04:01:39.049Z,100573.17
2019-03-01T04:04:08.626Z,100578.24
2019-03-01T04:06:37.976Z,100574.53
2019-03-01T04:09:07.461Z,100575.91
2019-03-01T04:11:36.800Z,100576.20
2019-03-01T04:14:06.513Z,100578.06
2019-03-01T04:16:36.131Z,100576.36
2019-03-01T04:19:05.397Z,100575.77
2019-03-01T04:21:34.666Z,100574.53
2019-03-01T04:24:04.166Z,100568.16
2019-03-01T04:26:33.692Z,100570.77
2019-03-01T04:29:02.876Z,100575.09
2019-03-01T04:31:32.412Z,100567.61
2019-03-01T04:34:02.198Z,100564.29
2019-03-01T04:36:31.544Z,100563.21
2019-03-01T04:39:01.028Z,100570.65
2019-03-01T04:41:30.442Z,100565.66
2019-03-01T04:43:59.813Z,100568.73
2019-03-01T04:46:29.138Z,100568.17
2019-03-01T04:48:58.539Z,100576.13
2019-03-01T04:51:28.058Z,100574.09
2019-03-01T04:53:58.416Z,100572.98
2019-03-01T04:56:31.465Z,100576.40
2019-03-01T04:59:02.488Z,100578.39
2019-03-01T05:01:33.605Z,100582.58
2019-03-01T05:04:04.583Z,100588.91
2019-03-01T05:06:35.746Z,100589.09
2019-03-01T05:09:07.841Z,100592.68
2019-03-01T05:11:38.937Z,100591.31
2019-03-01T05:14:10.157Z,100589.36
2019-03-01T05:16:41.231Z,100597.05
2019-03-01T05:19:12.255Z,100599.09
2019-03-01T05:21:43.418Z,100600.83
2019-03-01T05:24:14.483Z,100592.83
2019-03-01T05:26:45.625Z,100600.09
2019-03-01T05:29:16.547Z,100609.59
2019-03-01T05:31:47.610Z,100604.46
2019-03-01T05:34:18.591Z,100608.20
2019-03-01T05:36:49.842Z,100615.19
2019-03-01T05:39:20.896Z,100615.08
2019-03-01T05:41:52.095Z,100615.45
2019-03-01T05:44:23.562Z,100609.64
2019-03-01T05:46:55.497Z,100617.82
2019-03-01T05:49:26.620Z,100619.08
2019-03-01T05:51:57.832Z,100619.59
2019-03-01T05:54:29.200Z,100617.23
2019-03-01T05:57:00.368Z,100617.59
2019-03-01T05:59:31.705Z,100621.12
2019-03-01T06:02:51.127Z,100623.16
2019-03-01T06:05:29.144Z,100622.56
2019-03-01T06:08:38.346Z,100625.03
2019-03-01T06:11:14.680Z,100619.63
2019-03-01T06:14:25.189Z,100624.29
2019-03-01T06:18:01.591Z,100626.28
2019-03-01T06:20:57.595Z,100631.12
2019-03-01T06:23:52.801Z,100632.04
2019-03-01T06:27:03.954Z,100627.45
2019-03-01T06:30:04.836Z,100628.67
2019-03-01T06:33:30.551Z,100632.74
2019-03-01T06:36:06.538Z,100634.69
2019-03-01T06:39:25.587Z,100630.92
2019-03-01T06:42:14.843Z,100632.48
2019-03-01T06:45:17.712Z,100635.92
2019-03-01T06:47:49.164Z,100640.92
2019-03-01T06:50:24.828Z,100646.74
2019-03-01T06:52:55.928Z,100641.19
2019-03-01T06:55:45.462Z,100640.70
2019-03-01T06:58:22.033Z,100640.55
2019-03-01T07:00:55.158Z,100644.84
2019-03-01T07:03:26.143Z,100652.00
2019-03-01T07:06:03.400Z,100656.19
2019-03-01T07:08:30.396Z,100655.17
2019-03-01T07:11:01.415Z,100655.80
2019-03-01T07:13:32.261Z,100651.52
2019-03-01T07:16:03.376Z,100649.88
2019-03-01T07:18:34.556Z,100652.84
2019-03-01T07:21:05.544Z,100649.11
2019-03-01T07:23:37.224Z,100655.45
2019-03-01T07:26:08.822Z,100652.11
2019-03-01T07:28:40.116Z,100650.66
2019-03-01T07:31:11.289Z,100644.43
2019-03-01T07:33:42.474Z,100649.63
2019-03-01T07:36:13.491Z,100652.30
2019-03-01T07:38:44.505Z,100655.39
2019-03-01T07:41:15.560Z,100656.12
2019-03-01T07:43:46.796Z,100657.01
2019-03-01T07:46:18.161Z,100652.44
2019-03-01T07:48:49.324Z,100655.00
2019-03-01T07:51:20.281Z,100654.92
2019-03-01T07:53:51.353Z,100660.35
2019-03-01T07:56:22.603Z,100656.09
2019-03-01T07:58:54.012Z,100652.58
2019-03-01T08:01:25.752Z,100652.34
2019-03-01T08:03:57.879Z,100652.55
2019-03-01T08:06:29.283Z,100647.73
2019-03-01T08:09:00.935Z,100652.28
2019-03-01T08:11:32.538Z,100648.60
2019-03-01T08:14:04.822Z,100648.08
2019-03-01T08:16:35.876Z,100653.36
2019-03-01T08:19:06.836Z,100653.52
2019-03-01T08:21:37.948Z,100654.81
2019-03-01T08:24:11.000Z,100654.19
2019-03-01T08:26:41.816Z,100655.72
2019-03-01T08:29:12.741Z,100657.97
2019-03-01T08:31:43.891Z,100659.03
2019-03-01T08:34:17.714Z,100663.44
2019-03-01T08:36:47.782Z,100664.81
2019-03-01T08:39:18.668Z,100667.28
2019-03-01T08:41:49.623Z,100668.42
2019-03-01T08:44:23.123Z,100671.97
2019-03-01T08:46:53.438Z,100675.52
2019-03-01T08:49:24.629Z,100676.80
2019-03-01T08:51:58.499Z,100685.06
2019-03-01T08:54:30.989Z,100684.31
2019-03-01T08:57:01.735Z,100678.80
2019-03-01T08:59:32.900Z,100680.63
2019-03-01T09:02:03.912Z,100679.61
2019-03-01T09:04:37.920Z,100675.79
2019-03-01T09:07:07.665Z,100679.05
2019-03-01T09:09:38.787Z,100675.56
2019-03-01T09:12:10.078Z,100690.93
2019-03-01T09:14:41.287Z,100688.95
2019-03-01T09:17:12.254Z,100691.16
2019-03-01T09:19:43.588Z,100686.52
2019-03-01T09:22:14.502Z,100689.65
2019-03-01T09:24:46.160Z,100695.96
2019-03-01T09:27:17.211Z,100699.44
2019-03-01T09:29:48.318Z,100692.62
2019-03-01T09:32:19.228Z,100697.91
2019-03-01T09:34:52.211Z,100696.02
2019-03-01T09:37:23.121Z,100689.84
2019-03-01T09:39:54.859Z,100699.98
2019-03-01T09:42:25.720Z,100697.59
2019-03-01T09:44:56.866Z,100700.31
2019-03-01T09:47:28.029Z,100707.66
2019-03-01T09:50:00.143Z,100701.67
2019-03-01T09:52:31.756Z,100706.84
2019-03-01T09:55:02.991Z,100705.14
2019-03-01T09:57:34.461Z,100710.73
2019-03-01T10:00:07.299Z,100709.04
2019-03-01T10:02:38.662Z,100704.54
2019-03-01T10:05:11.669Z,100702.30
2019-03-01T10:07:42.565Z,100696.67
2019-03-01T10:10:14.566Z,100694.13
2019-03-01T10:12:45.697Z,100692.08
2019-03-01T10:15:17.100Z,100681.70
2019-03-01T10:17:48.020Z,100681.06
2019-03-01T10:20:19.008Z,100679.14
2019-03-01T10:22:50.206Z,100670.75
2019-03-01T10:25:21.528Z,100647.17
2019-03-01T10:27:52.470Z,100647.17
2019-03-01T10:30:23.622Z,100664.98
2019-03-01T10:32:54.820Z,100649.34
2019-03-01T10:35:25.464Z,100660.70
2019-03-01T10:37:56.145Z,100660.70
2019-03-01T10:40:27.214Z,100666.42
2019-03-01T10:42:58.550Z,100663.34
2019-03-01T10:45:29.531Z,100656.60
2019-03-01T10:48:00.492Z,100655.83
2019-03-01T10:50:31.169Z,100655.83
2019-03-01T10:53:02.299Z,100666.08
2019-03-01T10:55:33.484Z,100669.53
2019-03-01T10:58:05.071Z,100660.75
2019-03-01T11:00:36.330Z,100656.20
2019-03-01T11:03:07.546Z,100661.17
2019-03-01T11:05:38.393Z,100661.14
2019-03-01T11:08:09.376Z,100661.14
2019-03-01T11:10:40.077Z,100684.98
2019-03-01T11:13:10.937Z,100684.98
2019-03-01T11:15:42.086Z,100694.75
2019-03-01T11:18:13.257Z,100667.80
2019-03-01T11:20:44.024Z,100667.80
2019-03-01T11:23:14.953Z,100670.77
2019-03-01T11:25:45.617Z,100675.20
2019-03-01T11:28:18.127Z,100667.55
2019-03-01T11:30:48.952Z,100667.52
2019-03-01T11:33:20.154Z,100670.14
2019-03-01T11:35:51.124Z,100672.53
2019-03-01T11:38:21.965Z,100672.50
2019-03-01T11:40:53.556Z,100668.98
2019-03-01T11:43:25.043Z,100675.09
2019-03-01T11:45:56.090Z,100674.23
2019-03-01T11:48:27.008Z,100680.73
2019-03-01T11:50:58.119Z,100682.92
2019-03-01T11:53:29.186Z,100677.33
2019-03-01T11:56:00.040Z,100673.22
2019-03-01T11:58:30.745Z,100668.76
2019-03-01T12:01:01.861Z,100681.13
2019-03-01T12:03:33.376Z,100688.42
2019-03-01T12:06:04.500Z,100685.95
2019-03-01T12:08:35.567Z,100690.47
2019-03-01T12:11:07.020Z,100686.92
2019-03-01T12:13:37.872Z,100691.66
2019-03-01T12:16:08.864Z,100687.36
2019-03-01T12:18:39.594Z,100690.47
2019-03-01T12:21:10.470Z,100684.14
2019-03-01T12:23:41.815Z,100681.26
2019-03-01T12:26:12.706Z,100682.48
2019-03-01T12:28:43.881Z,100690.87
2019-03-01T12:31:14.908Z,100692.18
2019-03-01T12:33:45.771Z,100704.92
2019-03-01T12:36:16.621Z,100701.84
2019-03-01T12:38:48.056Z,100700.95
2019-03-01T12:41:19.087Z,100694.31
2019-03-01T12:43:51.654Z,100703.16
2019-03-01T12:46:22.594Z,100702.27
2019-03-01T12:48:53.474Z,100704.92
2019-03-01T12:51:24.454Z,100703.59
2019-03-01T12:53:55.350Z,100704.91
2019-03-01T12:56:26.422Z,100700.03
2019-03-01T12:58:57.101Z,100699.78
2019-03-01T13:01:27.969Z,100697.25
2019-03-01T13:03:58.802Z,100699.88
2019-03-01T13:06:29.659Z,100699.64
2019-03-01T13:09:00.380Z,100699.04
2019-03-01T13:11:31.066Z,100705.34
2019-03-01T13:14:01.657Z,100709.73
2019-03-01T13:16:32.598Z,100705.28
2019-03-01T13:19:03.755Z,100708.37
2019-03-01T13:21:34.684Z,100704.76
2019-03-01T13:24:05.711Z,100707.28
2019-03-01T13:26:37.680Z,100713.23
2019-03-01T13:29:08.854Z,100716.67
2019-03-01T13:31:39.601Z,100717.35
2019-03-01T13:34:13.624Z,100726.56
2019-03-01T13:36:42.949Z,100726.94
2019-03-01T13:39:13.683Z,100730.30
2019-03-01T13:41:44.562Z,100732.39
2019-03-01T13:44:16.600Z,100736.26
2019-03-01T13:46:47.668Z,100732.94
2019-03-01T13:49:18.574Z,100732.94
2019-03-01T13:51:53.064Z,100734.23
2019-03-01T13:54:21.927Z,100720.68
2019-03-01T13:56:53.113Z,100720.68
2019-03-01T13:59:24.019Z,100737.33
2019-03-01T14:01:54.770Z,100734.73
2019-03-01T14:04:25.675Z,100734.73
2019-03-01T14:06:56.978Z,100756.61
2019-03-01T14:09:28.162Z,100763.28
2019-03-01T14:12:00.345Z,100756.94
2019-03-01T14:14:31.190Z,100756.94
2019-03-01T14:17:02.257Z,100750.42
2019-03-01T14:19:33.120Z,100752.56
2019-03-01T14:22:05.266Z,100751.05
2019-03-01T14:24:36.254Z,100757.78
2019-03-01T14:27:06.965Z,100759.30
2019-03-01T14:29:38.705Z,100759.30
2019-03-01T14:32:09.399Z,100770.91
2019-03-01T14:34:40.416Z,100773.25
2019-03-01T14:37:15.122Z,100768.80
2019-03-01T14:39:46.137Z,100773.78
2019-03-01T14:42:16.938Z,100785.95
2019-03-01T14:44:48.359Z,100785.45
2019-03-01T14:47:19.225Z,100791.09
2019-03-01T14:49:50.009Z,100790.55
2019-03-01T14:52:22.185Z,100797.56
2019-03-01T14:54:53.083Z,100803.73
2019-03-01T14:57:28.794Z,100765.50
2019-03-01T15:00:21.637Z,100782.47
2019-03-01T15:03:06.840Z,100782.47
2019-03-01T15:05:38.725Z,100788.16
2019-03-01T15:08:10.537Z,100788.16
2019-03-01T15:10:41.434Z,100808.78
2019-03-01T15:13:12.347Z,100811.13
2019-03-01T15:15:43.434Z,100800.42
2019-03-01T15:18:14.587Z,100807.16
2019-03-01T15:20:45.965Z,100809.36
2019-03-01T15:23:16.799Z,100807.95
2019-03-01T15:25:48.651Z,100806.72
2019-03-01T15:28:20.014Z,100806.72
2019-03-01T15:30:51.062Z,100811.98
2019-03-01T15:33:21.861Z,100814.09
2019-03-01T15:35:52.936Z,100814.09
2019-03-01T15:38:27.728Z,100822.88
2019-03-01T15:40:56.818Z,100821.84
2019-03-01T15:43:29.910Z,100829.22
2019-03-01T15:46:00.642Z,100833.48
2019-03-01T15:48:34.429Z,100840.59
2019-03-01T15:51:06.692Z,100846.64
2019-03-01T15:53:38.016Z,100846.64
2019-03-01T15:56:09.717Z,100855.98
2019-03-01T15:58:40.908Z,100843.89
2019-03-01T16:01:12.437Z,100843.89
2019-03-01T16:03:43.618Z,100856.16
2019-03-01T16:06:20.122Z,100857.60
2019-03-01T16:08:48.159Z,100860.34
2019-03-01T16:11:20.491Z,100867.09
2019-03-01T16:13:51.516Z,100867.09
2019-03-01T16:16:22.630Z,100876.39
2019-03-01T21:24:34.826Z,101256.88
2019-03-01T21:27:06.213Z,101261.09
2019-03-01T21:29:36.753Z,101259.59
2019-03-01T21:32:11.763Z,101264.23
2019-03-01T21:34:42.220Z,101260.52
2019-03-01T21:37:12.726Z,101263.77
2019-03-01T21:39:43.320Z,101259.45
2019-03-01T21:42:16.904Z,101266.88
2019-03-01T21:44:46.713Z,101269.60
2019-03-01T21:47:17.197Z,101265.58
2019-03-01T21:49:47.806Z,101270.90
2019-03-01T21:52:18.478Z,101277.95
2019-03-01T21:54:51.990Z,101277.66
2019-03-01T21:57:21.484Z,101272.59
2019-03-01T21:59:52.507Z,101276.34
2019-03-01T22:02:23.585Z,101280.22
2019-03-01T22:04:52.718Z,101283.09
2019-03-01T22:07:23.920Z,101283.21
2019-03-01T22:09:53.223Z,101292.66
2019-03-01T22:12:24.721Z,101297.27
2019-03-01T22:14:53.820Z,101293.23
2019-03-01T22:17:23.118Z,101298.34
2019-03-01T22:19:52.859Z,101299.50
2019-03-01T22:22:22.236Z,101298.40
2019-03-01T22:24:51.678Z,101296.03
2019-03-01T22:27:21.492Z,101295.70
2019-03-01T22:29:52.257Z,101293.66
2019-03-01T22:32:21.483Z,101305.16
2019-03-01T22:34:51.166Z,101305.77
2019-03-01T22:37:20.741Z,101316.31
2019-03-01T22:39:51.493Z,101317.41
2019-03-01T22:42:20.743Z,101320.62
2019-03-01T22:44:50.133Z,101322.24
2019-03-01T22:47:19.576Z,101326.97
2019-03-01T22:49:48.779Z,101318.76
2019-03-01T22:52:18.193Z,101320.25
2019-03-01T22:54:47.956Z,101318.56
2019-03-01T22:57:19.345Z,101320.81
2019-03-01T22:59:48.708Z,101317.17
2019-03-01T23:02:20.115Z,101317.16
2019-03-01T23:04:49.919Z,101313.95
2019-03-01T23:07:19.226Z,101329.77
2019-03-01T23:09:49.154Z,101326.67
2019-03-01T23:12:18.457Z,101330.22
2019-03-01T23:14:47.835Z,101331.84
2019-03-01T23:17:17.183Z,101336.44
2019-03-01T23:19:47.704Z,101332.80
2019-03-01T23:22:18.395Z,101340.95
2019-03-01T23:24:49.455Z,101334.41
2019-03-01T23:27:19.044Z,101328.00
2019-03-01T23:29:50.992Z,101323.95
2019-03-01T23:32:19.113Z,101325.47
2019-03-01T23:34:48.633Z,101333.85
2019-03-01T23:37:18.265Z,101331.87
2019-03-01T23:39:47.644Z,101319.81
2019-03-01T23:42:17.416Z,101321.22
2019-03-01T23:44:48.227Z,101323.55
2019-03-01T23:47:17.744Z,101325.81
2019-03-01T23:49:47.213Z,101331.80
2019-03-01T23:52:19.530Z,101331.48
2019-03-01T23:54:47.911Z,101331.31
2019-03-01T23:57:17.487Z,101323.98
2019-03-01T23:59:47.133Z,101328.90
